TimeCST,TemperatureF,Dew PointF,Humidity,Sea Level PressureIn,VisibilityMPH,Wind Direction,Wind SpeedMPH,Gust SpeedMPH,PrecipitationIn,Events,Conditions,WindDirDegrees,DateUTC
12:56 AM,34.0,29.1,82,30.30,10.0,Calm,Calm,-,N/A,,Clear,0,2012-11-15 06:56:00
1:56 AM,34.0,28.0,79,30.30,10.0,Calm,Calm,-,N/A,,Clear,0,2012-11-15 07:56:00
2:56 AM,34.0,28.0,79,30.29,10.0,Calm,Calm,-,N/A,,Clear,0,2012-11-15 08:56:00
3:56 AM,34.0,28.0,79,30.29,10.0,Calm,Calm,-,N/A,,Clear,0,2012-11-15 09:56:00
4:56 AM,34.0,28.0,79,30.29,10.0,Calm,Calm,-,N/A,,Clear,0,2012-11-15 10:56:00
5:56 AM,32.9,28.0,82,30.29,10.0,Calm,Calm,-,N/A,,Clear,0,2012-11-15 11:56:00
6:56 AM,31.1,28.0,88,30.29,10.0,Calm,Calm,-,N/A,,Partly Cloudy,0,2012-11-15 12:56:00
7:56 AM,32.9,28.0,82,30.30,10.0,Calm,Calm,-,N/A,,Overcast,0,2012-11-15 13:56:00
8:56 AM,36.9,29.1,74,30.29,10.0,Calm,Calm,-,N/A,,Clear,0,2012-11-15 14:56:00
9:56 AM,41.9,29.1,61,30.30,10.0,SSW,9.2,-,N/A,,Mostly Cloudy,200,2012-11-15 15:56:00
10:56 AM,47.8,30.0,50,30.28,10.0,SW,11.5,17.3,N/A,,Clear,230,2012-11-15 16:56:00
11:56 AM,52.0,30.0,43,30.26,10.0,SSW,10.4,-,N/A,,Partly Cloudy,200,2012-11-15 17:56:00
12:56 PM,54.0,29.1,39,30.25,10.0,SSW,10.4,-,N/A,,Scattered Clouds,200,2012-11-15 18:56:00
1:56 PM,52.0,28.0,40,30.24,10.0,SW,12.7,-,N/A,,Scattered Clouds,220,2012-11-15 19:56:00
2:56 PM,50.9,29.1,43,30.24,10.0,SSW,5.8,-,N/A,,Clear,200,2012-11-15 20:56:00
3:56 PM,50.0,30.0,46,30.26,10.0,Calm,Calm,-,N/A,,Clear,0,2012-11-15 21:56:00
4:56 PM,41.0,31.1,68,30.27,10.0,Calm,Calm,-,N/A,,Clear,0,2012-11-15 22:56:00
5:56 PM,36.0,31.1,82,30.29,10.0,Calm,Calm,-,N/A,,Clear,0,2012-11-15 23:56:00
6:56 PM,32.0,28.0,85,30.32,10.0,Calm,Calm,-,N/A,,Clear,0,2012-11-16 00:56:00
7:56 PM,32.0,29.1,89,30.33,10.0,Calm,Calm,-,N/A,,Clear,0,2012-11-16 01:56:00
8:56 PM,29.1,27.1,92,30.34,10.0,Calm,Calm,-,N/A,,Clear,0,2012-11-16 02:56:00
9:56 PM,29.1,27.1,92,30.35,10.0,Calm,Calm,-,N/A,,Clear,0,2012-11-16 03:56:00
10:56 PM,27.1,26.1,96,30.36,10.0,Calm,Calm,-,N/A,,Clear,0,2012-11-16 04:56:00
11:56 PM,36.0,30.0,79,30.38,10.0,NNE,8.1,-,N/A,,Clear,30,2012-11-16 05:56:00